Terminal Aerodrome Forecast
Issued by NWS Rapid City, SD

Home | Current Version | Previous Version | Graphics & Text | Print | Product List | Glossary On
Versions: 1 2 3 4 5 6 7 8 9 10 11 12 13 14 15 16 17 18 19 20 21 22 23
000
FTUS43 KUNR 010500 CCA
TAFRAP
TAF COR
KRAP 010531Z 0106/0206 04010KT 3SM -SN BR SCT008 OVC015
      TEMPO 0106/0110 1SM -SN BKN008
     FM011000 35018KT P6SM OVC015
     FM011700 36012KT P6SM SCT025 BKN050=

USA.gov is the U.S. government's official web portal to all federal, state and local government web resources and services.